sensor_id;sensor_type;location;lat;lon;timestamp;temperature;humidity
35607;DHT22;21729;58.392;15.656;2022-11-15T00:02:18;7.80;99.90
35607;DHT22;21729;58.392;15.656;2022-11-15T00:04:44;7.70;99.90
35607;DHT22;21729;58.392;15.656;2022-11-15T00:07:11;7.80;99.90
35607;DHT22;21729;58.392;15.656;2022-11-15T00:09:40;7.80;99.90
35607;DHT22;21729;58.392;15.656;2022-11-15T00:12:07;7.70;99.90
35607;DHT22;21729;58.392;15.656;2022-11-15T00:14:34;7.70;99.90
35607;DHT22;21729;58.392;15.656;2022-11-15T00:17:01;7.70;99.90
35607;DHT22;21729;58.392;15.656;2022-11-15T00:19:28;7.70;99.90
35607;DHT22;21729;58.392;15.656;2022-11-15T00:21:55;7.70;99.90
35607;DHT22;21729;58.392;15.656;2022-11-15T00:24:22;7.70;99.90
35607;DHT22;21729;58.392;15.656;2022-11-15T00:26:50;7.70;99.90
35607;DHT22;21729;58.392;15.656;2022-11-15T00:29:17;7.70;99.90
35607;DHT22;21729;58.392;15.656;2022-11-15T00:31:45;7.70;99.90
35607;DHT22;21729;58.392;15.656;2022-11-15T00:34:12;7.70;99.90
35607;DHT22;21729;58.392;15.656;2022-11-15T00:36:39;7.70;99.90
35607;DHT22;21729;58.392;15.656;2022-11-15T00:39:06;7.70;99.90
35607;DHT22;21729;58.392;15.656;2022-11-15T00:41:33;7.70;99.90
35607;DHT22;21729;58.392;15.656;2022-11-15T00:44:01;7.70;99.90
35607;DHT22;21729;58.392;15.656;2022-11-15T00:46:28;7.70;99.90
35607;DHT22;21729;58.392;15.656;2022-11-15T00:48:55;7.70;99.90
35607;DHT22;21729;58.392;15.656;2022-11-15T00:51:22;7.70;99.90
35607;DHT22;21729;58.392;15.656;2022-11-15T00:53:49;7.60;99.90
35607;DHT22;21729;58.392;15.656;2022-11-15T00:56:16;7.60;99.90
35607;DHT22;21729;58.392;15.656;2022-11-15T00:58:43;7.60;99.90
35607;DHT22;21729;58.392;15.656;2022-11-15T01:01:14;7.60;99.90
35607;DHT22;21729;58.392;15.656;2022-11-15T01:03:41;7.60;99.90
35607;DHT22;21729;58.392;15.656;2022-11-15T01:06:08;7.60;99.90
35607;DHT22;21729;58.392;15.656;2022-11-15T01:08:36;7.60;99.90
35607;DHT22;21729;58.392;15.656;2022-11-15T01:11:04;7.60;99.90
35607;DHT22;21729;58.392;15.656;2022-11-15T01:13:32;7.60;99.90
35607;DHT22;21729;58.392;15.656;2022-11-15T01:15:59;7.60;99.90
35607;DHT22;21729;58.392;15.656;2022-11-15T01:18:28;7.60;99.90
35607;DHT22;21729;58.392;15.656;2022-11-15T01:20:55;7.60;99.90
35607;DHT22;21729;58.392;15.656;2022-11-15T01:23:22;7.60;99.90
35607;DHT22;21729;58.392;15.656;2022-11-15T01:25:49;7.60;99.90
35607;DHT22;21729;58.392;15.656;2022-11-15T01:28:16;7.60;99.90
35607;DHT22;21729;58.392;15.656;2022-11-15T01:30:43;7.50;99.90
35607;DHT22;21729;58.392;15.656;2022-11-15T01:33:10;7.40;99.90
35607;DHT22;21729;58.392;15.656;2022-11-15T01:35:40;7.60;99.90
35607;DHT22;21729;58.392;15.656;2022-11-15T01:38:07;7.60;99.90
35607;DHT22;21729;58.392;15.656;2022-11-15T01:40:34;7.60;99.90
35607;DHT22;21729;58.392;15.656;2022-11-15T01:43:19;7.60;99.90
35607;DHT22;21729;58.392;15.656;2022-11-15T01:45:51;7.60;99.90
35607;DHT22;21729;58.392;15.656;2022-11-15T01:48:20;7.60;99.90
35607;DHT22;21729;58.392;15.656;2022-11-15T01:50:49;7.60;99.90
35607;DHT22;21729;58.392;15.656;2022-11-15T01:53:18;7.60;99.90
35607;DHT22;21729;58.392;15.656;2022-11-15T01:55:47;7.60;99.90
35607;DHT22;21729;58.392;15.656;2022-11-15T01:58:14;7.60;99.90
35607;DHT22;21729;58.392;15.656;2022-11-15T02:00:41;7.50;99.90
35607;DHT22;21729;58.392;15.656;2022-11-15T02:03:08;7.50;99.90
35607;DHT22;21729;58.392;15.656;2022-11-15T02:05:36;7.50;99.90
35607;DHT22;21729;58.392;15.656;2022-11-15T02:08:06;7.50;99.90
35607;DHT22;21729;58.392;15.656;2022-11-15T02:10:33;7.50;99.90
35607;DHT22;21729;58.392;15.656;2022-11-15T02:13:01;7.50;99.90
35607;DHT22;21729;58.392;15.656;2022-11-15T02:15:33;7.50;99.90
35607;DHT22;21729;58.392;15.656;2022-11-15T02:18:14;7.50;99.90
35607;DHT22;21729;58.392;15.656;2022-11-15T02:20:55;7.50;99.90
35607;DHT22;21729;58.392;15.656;2022-11-15T02:23:59;7.50;99.90
35607;DHT22;21729;58.392;15.656;2022-11-15T02:29:41;7.50;99.90
35607;DHT22;21729;58.392;15.656;2022-11-15T02:32:19;7.40;99.90
35607;DHT22;21729;58.392;15.656;2022-11-15T02:34:51;7.50;99.90
35607;DHT22;21729;58.392;15.656;2022-11-15T02:37:26;7.50;99.90
35607;DHT22;21729;58.392;15.656;2022-11-15T02:40:01;7.50;99.90
35607;DHT22;21729;58.392;15.656;2022-11-15T02:42:35;7.50;99.90
35607;DHT22;21729;58.392;15.656;2022-11-15T02:45:27;7.50;99.90
35607;DHT22;21729;58.392;15.656;2022-11-15T02:47:58;7.60;99.90
35607;DHT22;21729;58.392;15.656;2022-11-15T02:50:29;7.60;99.90
35607;DHT22;21729;58.392;15.656;2022-11-15T02:52:56;7.60;99.90
35607;DHT22;21729;58.392;15.656;2022-11-15T02:55:28;7.60;99.90
35607;DHT22;21729;58.392;15.656;2022-11-15T02:58:05;7.60;99.90
35607;DHT22;21729;58.392;15.656;2022-11-15T03:00:35;7.60;99.90
35607;DHT22;21729;58.392;15.656;2022-11-15T03:03:29;7.60;99.90
35607;DHT22;21729;58.392;15.656;2022-11-15T03:06:04;7.60;99.90
35607;DHT22;21729;58.392;15.656;2022-11-15T03:08:39;7.60;99.90
35607;DHT22;21729;58.392;15.656;2022-11-15T03:11:09;7.60;99.90
35607;DHT22;21729;58.392;15.656;2022-11-15T03:13:39;7.60;99.90
35607;DHT22;21729;58.392;15.656;2022-11-15T03:16:13;7.60;99.90
35607;DHT22;21729;58.392;15.656;2022-11-15T03:18:45;7.60;99.90
35607;DHT22;21729;58.392;15.656;2022-11-15T03:21:14;7.60;99.90
35607;DHT22;21729;58.392;15.656;2022-11-15T03:23:43;7.60;99.90
35607;DHT22;21729;58.392;15.656;2022-11-15T03:26:13;7.50;99.90
35607;DHT22;21729;58.392;15.656;2022-11-15T03:28:44;7.50;99.90
35607;DHT22;21729;58.392;15.656;2022-11-15T03:31:14;7.50;99.90
35607;DHT22;21729;58.392;15.656;2022-11-15T03:34:02;7.50;99.90
35607;DHT22;21729;58.392;15.656;2022-11-15T03:36:32;7.50;99.90
35607;DHT22;21729;58.392;15.656;2022-11-15T03:39:03;7.50;99.90
35607;DHT22;21729;58.392;15.656;2022-11-15T03:41:37;7.50;99.90
35607;DHT22;21729;58.392;15.656;2022-11-15T03:44:15;7.50;99.90
35607;DHT22;21729;58.392;15.656;2022-11-15T03:46:48;7.50;99.90
35607;DHT22;21729;58.392;15.656;2022-11-15T03:49:24;7.50;99.90
35607;DHT22;21729;58.392;15.656;2022-11-15T03:51:53;7.50;99.90
35607;DHT22;21729;58.392;15.656;2022-11-15T03:54:22;7.50;99.90
35607;DHT22;21729;58.392;15.656;2022-11-15T03:56:49;7.50;99.90
35607;DHT22;21729;58.392;15.656;2022-11-15T03:59:16;7.50;99.90
35607;DHT22;21729;58.392;15.656;2022-11-15T04:01:43;7.50;99.90
35607;DHT22;21729;58.392;15.656;2022-11-15T04:04:11;7.50;99.90
35607;DHT22;21729;58.392;15.656;2022-11-15T04:06:39;7.50;99.90
35607;DHT22;21729;58.392;15.656;2022-11-15T04:09:06;7.50;99.90
35607;DHT22;21729;58.392;15.656;2022-11-15T04:11:33;7.50;99.90
35607;DHT22;21729;58.392;15.656;2022-11-15T04:14:01;7.40;99.90
35607;DHT22;21729;58.392;15.656;2022-11-15T04:16:28;7.50;99.90
35607;DHT22;21729;58.392;15.656;2022-11-15T04:18:55;7.50;99.90
35607;DHT22;21729;58.392;15.656;2022-11-15T04:21:36;7.50;99.90
35607;DHT22;21729;58.392;15.656;2022-11-15T04:24:22;7.40;99.90
35607;DHT22;21729;58.392;15.656;2022-11-15T04:26:49;7.40;99.90
35607;DHT22;21729;58.392;15.656;2022-11-15T04:29:16;7.40;99.90
35607;DHT22;21729;58.392;15.656;2022-11-15T04:32:01;7.40;99.90
35607;DHT22;21729;58.392;15.656;2022-11-15T04:34:28;7.40;99.90
35607;DHT22;21729;58.392;15.656;2022-11-15T04:36:55;7.40;99.90
35607;DHT22;21729;58.392;15.656;2022-11-15T04:39:42;7.40;99.90
35607;DHT22;21729;58.392;15.656;2022-11-15T04:42:09;7.40;99.90
35607;DHT22;21729;58.392;15.656;2022-11-15T04:44:37;7.30;99.90
35607;DHT22;21729;58.392;15.656;2022-11-15T04:47:04;7.40;99.90
35607;DHT22;21729;58.392;15.656;2022-11-15T04:49:31;7.20;99.90
35607;DHT22;21729;58.392;15.656;2022-11-15T04:51:58;7.30;99.90
35607;DHT22;21729;58.392;15.656;2022-11-15T04:54:25;7.30;99.90
35607;DHT22;21729;58.392;15.656;2022-11-15T04:56:54;7.30;99.90
35607;DHT22;21729;58.392;15.656;2022-11-15T04:59:21;7.40;99.90
35607;DHT22;21729;58.392;15.656;2022-11-15T05:01:48;7.30;99.90
35607;DHT22;21729;58.392;15.656;2022-11-15T05:04:15;7.30;99.90
35607;DHT22;21729;58.392;15.656;2022-11-15T05:06:48;7.30;99.90
35607;DHT22;21729;58.392;15.656;2022-11-15T05:09:16;7.30;99.90
35607;DHT22;21729;58.392;15.656;2022-11-15T05:11:43;7.30;99.90
35607;DHT22;21729;58.392;15.656;2022-11-15T05:14:12;7.30;99.90
35607;DHT22;21729;58.392;15.656;2022-11-15T05:16:40;7.30;99.90
35607;DHT22;21729;58.392;15.656;2022-11-15T05:19:07;7.40;99.90
35607;DHT22;21729;58.392;15.656;2022-11-15T05:21:34;7.30;99.90
35607;DHT22;21729;58.392;15.656;2022-11-15T05:24:02;7.20;99.90
35607;DHT22;21729;58.392;15.656;2022-11-15T05:26:29;7.20;99.90
35607;DHT22;21729;58.392;15.656;2022-11-15T05:28:57;7.20;99.90
35607;DHT22;21729;58.392;15.656;2022-11-15T05:31:27;7.20;99.90
35607;DHT22;21729;58.392;15.656;2022-11-15T05:33:55;7.20;99.90
35607;DHT22;21729;58.392;15.656;2022-11-15T05:36:29;7.10;96.60
35607;DHT22;21729;58.392;15.656;2022-11-15T05:38:57;7.20;96.60
35607;DHT22;21729;58.392;15.656;2022-11-15T05:41:29;7.20;99.90
35607;DHT22;21729;58.392;15.656;2022-11-15T05:43:58;7.10;52.20
35607;DHT22;21729;58.392;15.656;2022-11-15T05:46:28;7.10;53.60
35607;DHT22;21729;58.392;15.656;2022-11-15T05:48:56;7.10;68.20
35607;DHT22;21729;58.392;15.656;2022-11-15T05:51:24;7.10;68.00
35607;DHT22;21729;58.392;15.656;2022-11-15T05:53:53;7.10;65.20
35607;DHT22;21729;58.392;15.656;2022-11-15T05:56:21;7.10;44.40
35607;DHT22;21729;58.392;15.656;2022-11-15T05:58:49;7.10;4.50
35607;DHT22;21729;58.392;15.656;2022-11-15T06:01:16;7.10;1.00
35607;DHT22;21729;58.392;15.656;2022-11-15T06:03:44;7.10;1.00
35607;DHT22;21729;58.392;15.656;2022-11-15T06:06:11;7.10;2.10
35607;DHT22;21729;58.392;15.656;2022-11-15T06:08:38;7.10;1.00
35607;DHT22;21729;58.392;15.656;2022-11-15T06:11:06;7.10;1.00
35607;DHT22;21729;58.392;15.656;2022-11-15T06:13:33;7.10;3.00
35607;DHT22;21729;58.392;15.656;2022-11-15T06:16:00;7.10;5.60
35607;DHT22;21729;58.392;15.656;2022-11-15T06:18:27;7.10;10.00
35607;DHT22;21729;58.392;15.656;2022-11-15T06:21:00;7.10;9.30
35607;DHT22;21729;58.392;15.656;2022-11-15T06:23:27;7.00;1.00
35607;DHT22;21729;58.392;15.656;2022-11-15T06:25:58;7.00;1.00
35607;DHT22;21729;58.392;15.656;2022-11-15T06:28:26;7.10;1.00
35607;DHT22;21729;58.392;15.656;2022-11-15T06:30:54;7.10;1.00
35607;DHT22;21729;58.392;15.656;2022-11-15T06:33:21;7.10;1.00
35607;DHT22;21729;58.392;15.656;2022-11-15T06:35:48;7.10;1.00
35607;DHT22;21729;58.392;15.656;2022-11-15T06:38:16;7.00;1.00
35607;DHT22;21729;58.392;15.656;2022-11-15T06:40:43;6.90;1.00
35607;DHT22;21729;58.392;15.656;2022-11-15T06:43:10;6.90;1.00
35607;DHT22;21729;58.392;15.656;2022-11-15T06:45:37;6.80;1.00
35607;DHT22;21729;58.392;15.656;2022-11-15T06:48:07;6.70;1.00
35607;DHT22;21729;58.392;15.656;2022-11-15T06:50:34;6.70;1.00
35607;DHT22;21729;58.392;15.656;2022-11-15T06:53:02;6.60;4.10
35607;DHT22;21729;58.392;15.656;2022-11-15T06:55:31;6.60;14.20
35607;DHT22;21729;58.392;15.656;2022-11-15T06:57:58;6.70;1.70
35607;DHT22;21729;58.392;15.656;2022-11-15T07:00:25;6.60;6.10
35607;DHT22;21729;58.392;15.656;2022-11-15T07:02:52;6.60;15.90
35607;DHT22;21729;58.392;15.656;2022-11-15T07:05:19;6.60;33.10
35607;DHT22;21729;58.392;15.656;2022-11-15T07:07:51;6.50;27.90
35607;DHT22;21729;58.392;15.656;2022-11-15T07:10:19;6.50;30.30
35607;DHT22;21729;58.392;15.656;2022-11-15T07:12:48;6.50;29.40
35607;DHT22;21729;58.392;15.656;2022-11-15T07:15:15;6.50;24.20
35607;DHT22;21729;58.392;15.656;2022-11-15T07:17:42;6.50;25.90
35607;DHT22;21729;58.392;15.656;2022-11-15T07:20:11;6.50;41.20
35607;DHT22;21729;58.392;15.656;2022-11-15T07:22:39;6.40;65.00
35607;DHT22;21729;58.392;15.656;2022-11-15T07:25:06;6.50;78.40
35607;DHT22;21729;58.392;15.656;2022-11-15T07:27:34;6.40;99.90
35607;DHT22;21729;58.392;15.656;2022-11-15T07:30:03;6.50;99.90
35607;DHT22;21729;58.392;15.656;2022-11-15T07:32:31;6.40;99.90
35607;DHT22;21729;58.392;15.656;2022-11-15T07:34:58;6.40;99.90
35607;DHT22;21729;58.392;15.656;2022-11-15T07:37:25;6.40;99.90
35607;DHT22;21729;58.392;15.656;2022-11-15T07:39:52;6.40;99.90
35607;DHT22;21729;58.392;15.656;2022-11-15T07:42:19;6.40;99.90
35607;DHT22;21729;58.392;15.656;2022-11-15T07:45:06;6.30;99.90
35607;DHT22;21729;58.392;15.656;2022-11-15T07:47:33;6.10;99.90
35607;DHT22;21729;58.392;15.656;2022-11-15T07:50:00;6.20;99.90
35607;DHT22;21729;58.392;15.656;2022-11-15T07:52:27;6.20;99.90
35607;DHT22;21729;58.392;15.656;2022-11-15T07:54:54;6.20;99.90
35607;DHT22;21729;58.392;15.656;2022-11-15T07:57:21;6.10;99.90
35607;DHT22;21729;58.392;15.656;2022-11-15T07:59:48;6.10;99.90
35607;DHT22;21729;58.392;15.656;2022-11-15T08:02:16;6.10;99.90
35607;DHT22;21729;58.392;15.656;2022-11-15T08:04:43;6.00;99.90
35607;DHT22;21729;58.392;15.656;2022-11-15T08:07:10;6.00;99.90
35607;DHT22;21729;58.392;15.656;2022-11-15T08:09:37;6.00;99.90
35607;DHT22;21729;58.392;15.656;2022-11-15T08:12:05;6.10;99.90
35607;DHT22;21729;58.392;15.656;2022-11-15T08:14:32;6.10;99.90
35607;DHT22;21729;58.392;15.656;2022-11-15T08:16:59;6.10;99.90
35607;DHT22;21729;58.392;15.656;2022-11-15T08:19:27;6.10;99.90
35607;DHT22;21729;58.392;15.656;2022-11-15T08:21:54;6.00;99.90
35607;DHT22;21729;58.392;15.656;2022-11-15T08:24:22;6.10;99.90
35607;DHT22;21729;58.392;15.656;2022-11-15T08:26:49;6.00;99.90
35607;DHT22;21729;58.392;15.656;2022-11-15T08:29:16;5.90;99.90
35607;DHT22;21729;58.392;15.656;2022-11-15T08:31:43;5.90;99.90
35607;DHT22;21729;58.392;15.656;2022-11-15T08:34:10;5.90;99.90
35607;DHT22;21729;58.392;15.656;2022-11-15T08:36:38;5.90;99.90
35607;DHT22;21729;58.392;15.656;2022-11-15T08:39:05;5.90;99.90
35607;DHT22;21729;58.392;15.656;2022-11-15T08:41:35;6.00;99.90
35607;DHT22;21729;58.392;15.656;2022-11-15T08:44:03;5.90;99.90
35607;DHT22;21729;58.392;15.656;2022-11-15T08:46:30;6.00;99.90
35607;DHT22;21729;58.392;15.656;2022-11-15T08:48:57;6.00;99.90
35607;DHT22;21729;58.392;15.656;2022-11-15T08:51:24;5.90;99.90
35607;DHT22;21729;58.392;15.656;2022-11-15T08:53:52;5.90;99.90
35607;DHT22;21729;58.392;15.656;2022-11-15T08:56:19;5.80;99.90
35607;DHT22;21729;58.392;15.656;2022-11-15T08:58:46;5.90;99.90
35607;DHT22;21729;58.392;15.656;2022-11-15T09:01:15;5.90;99.90
35607;DHT22;21729;58.392;15.656;2022-11-15T09:03:43;5.90;99.90
35607;DHT22;21729;58.392;15.656;2022-11-15T09:06:10;6.00;99.90
35607;DHT22;21729;58.392;15.656;2022-11-15T09:08:37;6.00;99.90
35607;DHT22;21729;58.392;15.656;2022-11-15T09:11:07;5.90;99.90
35607;DHT22;21729;58.392;15.656;2022-11-15T09:13:34;5.90;99.90
35607;DHT22;21729;58.392;15.656;2022-11-15T09:16:03;5.90;99.90
35607;DHT22;21729;58.392;15.656;2022-11-15T09:18:30;5.90;99.90
35607;DHT22;21729;58.392;15.656;2022-11-15T09:20:58;5.90;99.90
35607;DHT22;21729;58.392;15.656;2022-11-15T09:23:26;6.00;99.90
35607;DHT22;21729;58.392;15.656;2022-11-15T09:25:58;5.90;99.90
35607;DHT22;21729;58.392;15.656;2022-11-15T09:28:27;6.00;99.90
35607;DHT22;21729;58.392;15.656;2022-11-15T09:30:56;6.00;99.90
35607;DHT22;21729;58.392;15.656;2022-11-15T09:33:24;6.20;99.90
35607;DHT22;21729;58.392;15.656;2022-11-15T09:35:51;6.10;99.90
35607;DHT22;21729;58.392;15.656;2022-11-15T09:38:19;6.20;99.90
35607;DHT22;21729;58.392;15.656;2022-11-15T09:40:51;6.20;99.90
35607;DHT22;21729;58.392;15.656;2022-11-15T09:43:31;6.20;99.90
35607;DHT22;21729;58.392;15.656;2022-11-15T09:46:07;6.10;93.80
35607;DHT22;21729;58.392;15.656;2022-11-15T09:48:50;6.20;90.00
35607;DHT22;21729;58.392;15.656;2022-11-15T09:51:25;6.10;99.90
35607;DHT22;21729;58.392;15.656;2022-11-15T09:54:00;6.20;83.90
35607;DHT22;21729;58.392;15.656;2022-11-15T09:56:30;6.20;99.30
35607;DHT22;21729;58.392;15.656;2022-11-15T09:59:13;6.20;76.50
35607;DHT22;21729;58.392;15.656;2022-11-15T10:01:48;6.20;78.00
35607;DHT22;21729;58.392;15.656;2022-11-15T10:04:16;6.20;86.80
35607;DHT22;21729;58.392;15.656;2022-11-15T10:06:46;6.10;32.10
35607;DHT22;21729;58.392;15.656;2022-11-15T10:09:21;6.20;20.30
35607;DHT22;21729;58.392;15.656;2022-11-15T10:11:50;6.30;36.10
35607;DHT22;21729;58.392;15.656;2022-11-15T10:14:21;6.10;14.30
35607;DHT22;21729;58.392;15.656;2022-11-15T10:17:20;6.50;5.00
35607;DHT22;21729;58.392;15.656;2022-11-15T10:19:55;6.50;1.00
35607;DHT22;21729;58.392;15.656;2022-11-15T10:22:29;6.60;1.00
35607;DHT22;21729;58.392;15.656;2022-11-15T10:25:10;6.80;1.00
35607;DHT22;21729;58.392;15.656;2022-11-15T10:27:39;7.00;1.00
35607;DHT22;21729;58.392;15.656;2022-11-15T10:30:13;7.00;1.00
35607;DHT22;21729;58.392;15.656;2022-11-15T10:32:43;7.00;1.00
35607;DHT22;21729;58.392;15.656;2022-11-15T10:35:19;6.90;1.00
35607;DHT22;21729;58.392;15.656;2022-11-15T10:37:47;7.00;1.00
35607;DHT22;21729;58.392;15.656;2022-11-15T10:40:18;7.00;1.00
35607;DHT22;21729;58.392;15.656;2022-11-15T10:42:45;6.90;1.00
35607;DHT22;21729;58.392;15.656;2022-11-15T10:45:28;6.80;99.90
35607;DHT22;21729;58.392;15.656;2022-11-15T10:48:22;6.80;1.00
35607;DHT22;21729;58.392;15.656;2022-11-15T10:50:50;6.80;1.40
35607;DHT22;21729;58.392;15.656;2022-11-15T10:53:28;6.80;1.40
35607;DHT22;21729;58.392;15.656;2022-11-15T10:56:06;6.90;99.90
35607;DHT22;21729;58.392;15.656;2022-11-15T10:58:37;7.00;99.90
35607;DHT22;21729;58.392;15.656;2022-11-15T11:01:17;6.50;99.90
35607;DHT22;21729;58.392;15.656;2022-11-15T11:03:58;6.70;99.90
35607;DHT22;21729;58.392;15.656;2022-11-15T11:06:26;6.60;99.90
35607;DHT22;21729;58.392;15.656;2022-11-15T11:08:56;6.70;99.90
35607;DHT22;21729;58.392;15.656;2022-11-15T11:11:23;6.80;99.90
35607;DHT22;21729;58.392;15.656;2022-11-15T11:13:50;6.80;99.90
35607;DHT22;21729;58.392;15.656;2022-11-15T11:16:41;7.00;99.90
35607;DHT22;21729;58.392;15.656;2022-11-15T11:19:28;7.00;99.90
35607;DHT22;21729;58.392;15.656;2022-11-15T11:22:01;7.00;99.90
35607;DHT22;21729;58.392;15.656;2022-11-15T11:24:34;7.10;99.90
35607;DHT22;21729;58.392;15.656;2022-11-15T11:27:18;7.10;99.90
35607;DHT22;21729;58.392;15.656;2022-11-15T11:30:00;7.10;99.90
35607;DHT22;21729;58.392;15.656;2022-11-15T11:35:29;7.20;99.90
35607;DHT22;21729;58.392;15.656;2022-11-15T11:38:07;7.10;99.90
35607;DHT22;21729;58.392;15.656;2022-11-15T11:40:40;7.20;99.90
35607;DHT22;21729;58.392;15.656;2022-11-15T11:43:18;7.20;99.90
35607;DHT22;21729;58.392;15.656;2022-11-15T11:48:47;6.90;99.90
35607;DHT22;21729;58.392;15.656;2022-11-15T11:51:20;7.00;99.90
35607;DHT22;21729;58.392;15.656;2022-11-15T11:53:53;6.90;99.90
35607;DHT22;21729;58.392;15.656;2022-11-15T11:56:26;6.80;99.90
35607;DHT22;21729;58.392;15.656;2022-11-15T11:58:56;6.80;99.90
35607;DHT22;21729;58.392;15.656;2022-11-15T12:01:30;6.80;99.90
35607;DHT22;21729;58.392;15.656;2022-11-15T12:04:04;6.80;99.90
35607;DHT22;21729;58.392;15.656;2022-11-15T12:06:35;6.80;99.90
35607;DHT22;21729;58.392;15.656;2022-11-15T12:09:11;6.70;99.90
35607;DHT22;21729;58.392;15.656;2022-11-15T12:11:49;6.70;99.90
35607;DHT22;21729;58.392;15.656;2022-11-15T12:14:27;6.60;99.90
35607;DHT22;21729;58.392;15.656;2022-11-15T12:16:57;6.60;99.90
35607;DHT22;21729;58.392;15.656;2022-11-15T12:19:26;6.60;99.90
35607;DHT22;21729;58.392;15.656;2022-11-15T12:21:59;6.60;99.90
35607;DHT22;21729;58.392;15.656;2022-11-15T12:24:30;6.60;99.90
35607;DHT22;21729;58.392;15.656;2022-11-15T12:27:01;6.60;99.90
35607;DHT22;21729;58.392;15.656;2022-11-15T12:29:35;6.60;99.90
35607;DHT22;21729;58.392;15.656;2022-11-15T12:32:05;6.70;99.90
35607;DHT22;21729;58.392;15.656;2022-11-15T12:34:43;6.70;99.90
35607;DHT22;21729;58.392;15.656;2022-11-15T12:40:33;6.70;99.90
35607;DHT22;21729;58.392;15.656;2022-11-15T12:46:12;6.70;99.90
35607;DHT22;21729;58.392;15.656;2022-11-15T12:48:51;6.70;99.90
35607;DHT22;21729;58.392;15.656;2022-11-15T12:51:22;6.70;99.90
35607;DHT22;21729;58.392;15.656;2022-11-15T12:57:31;6.70;99.90
35607;DHT22;21729;58.392;15.656;2022-11-15T13:00:00;6.80;99.90
35607;DHT22;21729;58.392;15.656;2022-11-15T13:02:30;6.80;99.90
35607;DHT22;21729;58.392;15.656;2022-11-15T13:08:08;6.80;99.90
35607;DHT22;21729;58.392;15.656;2022-11-15T13:10:35;6.70;99.90
35607;DHT22;21729;58.392;15.656;2022-11-15T13:13:04;6.80;99.90
35607;DHT22;21729;58.392;15.656;2022-11-15T13:15:43;6.70;99.90
35607;DHT22;21729;58.392;15.656;2022-11-15T13:18:37;6.70;99.90
35607;DHT22;21729;58.392;15.656;2022-11-15T13:21:18;6.60;99.90
35607;DHT22;21729;58.392;15.656;2022-11-15T13:24:04;6.60;99.90
35607;DHT22;21729;58.392;15.656;2022-11-15T13:26:38;6.60;99.90
35607;DHT22;21729;58.392;15.656;2022-11-15T13:29:15;6.50;99.90
35607;DHT22;21729;58.392;15.656;2022-11-15T13:31:43;6.50;99.90
35607;DHT22;21729;58.392;15.656;2022-11-15T13:34:21;6.50;99.90
35607;DHT22;21729;58.392;15.656;2022-11-15T13:36:49;6.40;99.90
35607;DHT22;21729;58.392;15.656;2022-11-15T13:39:27;6.30;99.90
35607;DHT22;21729;58.392;15.656;2022-11-15T13:41:54;6.30;99.90
35607;DHT22;21729;58.392;15.656;2022-11-15T13:44:23;6.20;99.90
35607;DHT22;21729;58.392;15.656;2022-11-15T13:47:01;6.20;99.90
35607;DHT22;21729;58.392;15.656;2022-11-15T13:49:30;6.10;99.90
35607;DHT22;21729;58.392;15.656;2022-11-15T13:51:58;6.10;99.90
35607;DHT22;21729;58.392;15.656;2022-11-15T13:54:33;6.00;99.90
35607;DHT22;21729;58.392;15.656;2022-11-15T13:57:08;6.00;99.90
35607;DHT22;21729;58.392;15.656;2022-11-15T13:59:43;6.00;99.90
35607;DHT22;21729;58.392;15.656;2022-11-15T14:02:13;5.90;99.90
35607;DHT22;21729;58.392;15.656;2022-11-15T14:04:46;5.80;99.90
35607;DHT22;21729;58.392;15.656;2022-11-15T14:07:17;5.80;99.90
35607;DHT22;21729;58.392;15.656;2022-11-15T14:09:47;5.80;99.90
35607;DHT22;21729;58.392;15.656;2022-11-15T14:12:27;5.80;99.90
35607;DHT22;21729;58.392;15.656;2022-11-15T14:14:55;5.80;99.90
35607;DHT22;21729;58.392;15.656;2022-11-15T14:17:34;5.80;99.90
35607;DHT22;21729;58.392;15.656;2022-11-15T14:20:01;5.80;99.90
35607;DHT22;21729;58.392;15.656;2022-11-15T14:22:30;5.80;99.90
35607;DHT22;21729;58.392;15.656;2022-11-15T14:25:13;5.70;99.90
35607;DHT22;21729;58.392;15.656;2022-11-15T14:27:41;5.70;99.90
35607;DHT22;21729;58.392;15.656;2022-11-15T14:30:17;5.70;99.90
35607;DHT22;21729;58.392;15.656;2022-11-15T14:32:47;5.70;99.90
35607;DHT22;21729;58.392;15.656;2022-11-15T14:35:17;5.70;99.90
35607;DHT22;21729;58.392;15.656;2022-11-15T14:37:44;5.70;99.90
35607;DHT22;21729;58.392;15.656;2022-11-15T14:40:15;5.60;99.90
35607;DHT22;21729;58.392;15.656;2022-11-15T14:42:44;5.60;99.90
35607;DHT22;21729;58.392;15.656;2022-11-15T14:45:13;5.60;99.90
35607;DHT22;21729;58.392;15.656;2022-11-15T14:47:41;5.60;99.90
35607;DHT22;21729;58.392;15.656;2022-11-15T14:50:12;5.60;99.90
35607;DHT22;21729;58.392;15.656;2022-11-15T14:52:39;5.60;99.90
35607;DHT22;21729;58.392;15.656;2022-11-15T14:55:16;5.60;99.90
35607;DHT22;21729;58.392;15.656;2022-11-15T14:57:44;5.60;99.90
35607;DHT22;21729;58.392;15.656;2022-11-15T15:00:13;5.60;99.90
35607;DHT22;21729;58.392;15.656;2022-11-15T15:02:41;5.60;99.90
35607;DHT22;21729;58.392;15.656;2022-11-15T15:05:16;5.60;99.90
35607;DHT22;21729;58.392;15.656;2022-11-15T15:07:44;5.60;99.90
35607;DHT22;21729;58.392;15.656;2022-11-15T15:10:12;5.60;99.90
35607;DHT22;21729;58.392;15.656;2022-11-15T15:12:41;5.60;99.90
35607;DHT22;21729;58.392;15.656;2022-11-15T15:15:13;5.60;99.90
35607;DHT22;21729;58.392;15.656;2022-11-15T15:17:41;5.60;99.90
35607;DHT22;21729;58.392;15.656;2022-11-15T15:20:09;5.60;99.90
35607;DHT22;21729;58.392;15.656;2022-11-15T15:22:37;5.60;99.90
35607;DHT22;21729;58.392;15.656;2022-11-15T15:25:20;5.60;99.90
35607;DHT22;21729;58.392;15.656;2022-11-15T15:27:48;5.60;99.90
35607;DHT22;21729;58.392;15.656;2022-11-15T15:30:16;5.60;99.90
35607;DHT22;21729;58.392;15.656;2022-11-15T15:32:44;5.50;99.90
35607;DHT22;21729;58.392;15.656;2022-11-15T15:35:12;5.50;99.90
35607;DHT22;21729;58.392;15.656;2022-11-15T15:37:39;5.50;99.90
35607;DHT22;21729;58.392;15.656;2022-11-15T15:40:13;5.40;99.90
35607;DHT22;21729;58.392;15.656;2022-11-15T15:42:41;5.40;99.90
35607;DHT22;21729;58.392;15.656;2022-11-15T15:45:10;5.30;99.90
35607;DHT22;21729;58.392;15.656;2022-11-15T15:47:38;5.30;99.90
35607;DHT22;21729;58.392;15.656;2022-11-15T15:50:14;5.30;99.90
35607;DHT22;21729;58.392;15.656;2022-11-15T15:52:43;5.30;99.90
35607;DHT22;21729;58.392;15.656;2022-11-15T15:55:11;5.30;99.90
35607;DHT22;21729;58.392;15.656;2022-11-15T15:57:38;5.30;99.90
35607;DHT22;21729;58.392;15.656;2022-11-15T16:00:06;5.30;99.90
35607;DHT22;21729;58.392;15.656;2022-11-15T16:02:35;5.30;99.90
35607;DHT22;21729;58.392;15.656;2022-11-15T16:05:02;5.20;99.90
35607;DHT22;21729;58.392;15.656;2022-11-15T16:07:29;5.20;99.90
35607;DHT22;21729;58.392;15.656;2022-11-15T16:09:56;5.10;99.90
35607;DHT22;21729;58.392;15.656;2022-11-15T16:12:30;5.10;99.90
35607;DHT22;21729;58.392;15.656;2022-11-15T16:14:57;5.10;99.90
35607;DHT22;21729;58.392;15.656;2022-11-15T16:17:26;5.10;99.90